createdAt,value
2023-10-09T00:01:25.163Z,15.02
2023-10-09T00:03:53.983Z,14.99
2023-10-09T00:06:23.368Z,15.05
2023-10-09T00:08:53.502Z,15.09
2023-10-09T00:11:20.758Z,15.14
2023-10-09T00:13:49.092Z,15.13
2023-10-09T00:16:19.012Z,14.99
2023-10-09T00:18:48.093Z,14.91
2023-10-09T00:21:18.181Z,14.82
2023-10-09T00:23:46.628Z,14.92
2023-10-09T00:26:15.138Z,14.94
2023-10-09T00:28:49.702Z,14.98
2023-10-09T00:31:18.621Z,15.02
2023-10-09T00:33:46.727Z,15.05
2023-10-09T00:36:13.734Z,15.06
2023-10-09T00:38:41.206Z,15.05
2023-10-09T00:41:08.133Z,15.07
2023-10-09T00:43:36.548Z,15.13
2023-10-09T00:46:06.767Z,15.20
2023-10-09T00:48:34.210Z,15.26
2023-10-09T00:51:02.854Z,15.31
2023-10-09T00:53:30.303Z,15.21
2023-10-09T00:55:59.048Z,15.19
2023-10-09T00:58:26.966Z,15.03
2023-10-09T01:00:55.585Z,14.91
2023-10-09T01:03:23.032Z,14.91
2023-10-09T01:05:53.641Z,14.90
2023-10-09T01:08:22.594Z,14.89
2023-10-09T01:10:49.948Z,14.96
2023-10-09T01:13:18.415Z,15.03
2023-10-09T01:15:45.582Z,15.04
2023-10-09T01:18:15.654Z,15.10
2023-10-09T01:20:43.429Z,15.18
2023-10-09T01:23:13.372Z,15.04
2023-10-09T01:25:40.562Z,15.09
2023-10-09T01:28:07.801Z,15.14
2023-10-09T01:30:37.155Z,15.21
2023-10-09T01:33:05.085Z,15.20
2023-10-09T01:35:32.039Z,15.20
2023-10-09T01:37:59.024Z,15.27
2023-10-09T01:40:27.341Z,15.22
2023-10-09T01:42:54.337Z,15.18
2023-10-09T01:45:21.648Z,15.16
2023-10-09T01:47:48.567Z,15.05
2023-10-09T01:50:17.387Z,15.08
2023-10-09T01:52:46.446Z,15.17
2023-10-09T01:55:15.064Z,15.21
2023-10-09T01:57:43.291Z,15.23
2023-10-09T02:00:12.994Z,15.30
2023-10-09T02:02:40.489Z,15.36
2023-10-09T02:05:10.471Z,15.39
2023-10-09T02:07:37.782Z,15.33
2023-10-09T02:10:06.926Z,15.28
2023-10-09T02:12:34.801Z,15.25
2023-10-09T02:15:04.873Z,15.23
2023-10-09T02:17:32.385Z,15.14
2023-10-09T02:19:59.640Z,15.15
2023-10-09T02:22:26.722Z,15.21
2023-10-09T02:24:53.993Z,15.17
2023-10-09T02:27:21.113Z,15.18
2023-10-09T02:29:48.312Z,15.17
2023-10-09T02:32:19.308Z,15.22
2023-10-09T02:34:46.432Z,15.26
2023-10-09T02:37:14.387Z,15.16
2023-10-09T02:39:41.839Z,15.06
2023-10-09T02:42:08.829Z,15.10
2023-10-09T02:44:36.112Z,15.16
2023-10-09T02:47:03.074Z,15.25
2023-10-09T02:49:31.974Z,15.29
2023-10-09T02:51:59.193Z,15.29
2023-10-09T02:54:26.697Z,15.28
2023-10-09T02:56:54.732Z,15.22
2023-10-09T02:59:22.815Z,15.23
2023-10-09T03:01:51.776Z,15.07
2023-10-09T03:04:21.154Z,14.99
2023-10-09T03:06:50.478Z,14.96
2023-10-09T03:09:18.458Z,14.87
2023-10-09T03:11:47.715Z,14.90
2023-10-09T03:14:16.087Z,14.93
2023-10-09T03:16:42.990Z,14.97
2023-10-09T03:19:10.077Z,14.96
2023-10-09T03:21:36.987Z,14.82
2023-10-09T03:24:06.462Z,14.68
2023-10-09T03:26:34.910Z,14.66
2023-10-09T03:29:02.146Z,14.71
2023-10-09T03:31:30.223Z,14.85
2023-10-09T03:33:57.187Z,14.95
2023-10-09T03:36:25.373Z,15.04
2023-10-09T03:38:52.382Z,15.14
2023-10-09T03:41:20.843Z,15.19
2023-10-09T03:43:48.046Z,15.18
2023-10-09T03:46:17.712Z,15.07
2023-10-09T03:48:45.331Z,14.91
2023-10-09T03:51:13.192Z,14.86
2023-10-09T03:53:40.837Z,14.88
2023-10-09T03:56:09.291Z,14.85
2023-10-09T03:58:38.323Z,14.88
2023-10-09T04:01:09.199Z,14.86
2023-10-09T04:03:36.647Z,14.82
2023-10-09T04:06:04.413Z,14.78
2023-10-09T04:08:31.351Z,14.79
2023-10-09T04:10:58.946Z,14.81
2023-10-09T04:13:25.960Z,14.75
2023-10-09T04:15:54.238Z,14.76
2023-10-09T04:18:22.096Z,14.79
2023-10-09T04:20:49.456Z,14.81
2023-10-09T04:23:16.610Z,14.87
2023-10-09T04:25:44.045Z,14.92
2023-10-09T04:28:11.790Z,14.98
2023-10-09T04:30:40.902Z,15.03
2023-10-09T04:33:09.710Z,15.06
2023-10-09T04:35:37.287Z,15.10
2023-10-09T04:38:04.625Z,15.12
2023-10-09T04:40:32.290Z,15.17
2023-10-09T04:42:59.457Z,15.20
2023-10-09T04:45:26.983Z,15.13
2023-10-09T04:47:55.055Z,15.08
2023-10-09T04:50:23.756Z,14.93
2023-10-09T04:52:50.725Z,14.74
2023-10-09T04:55:18.143Z,14.81
2023-10-09T04:57:48.319Z,14.83
2023-10-09T05:00:19.324Z,14.88
2023-10-09T05:02:50.154Z,14.96
2023-10-09T05:05:18.603Z,14.75
2023-10-09T05:07:47.020Z,14.72
2023-10-09T05:10:14.546Z,14.39
2023-10-09T05:12:41.664Z,14.53
2023-10-09T05:15:10.276Z,14.35
2023-10-09T05:17:38.701Z,14.68
2023-10-09T05:20:07.604Z,14.66
2023-10-09T05:22:34.647Z,14.56
2023-10-09T05:25:03.860Z,14.69
2023-10-09T05:27:31.157Z,14.56
2023-10-09T05:29:58.360Z,14.57
2023-10-09T05:32:25.499Z,14.72
2023-10-09T05:34:52.996Z,14.57
2023-10-09T05:37:20.212Z,14.48
2023-10-09T05:39:49.497Z,14.24
2023-10-09T05:42:19.288Z,14.10
2023-10-09T05:44:48.109Z,14.20
2023-10-09T05:47:15.068Z,14.34
2023-10-09T05:49:42.979Z,14.51
2023-10-09T05:52:10.409Z,14.51
2023-10-09T05:54:37.634Z,14.57
2023-10-09T05:57:04.803Z,14.59
2023-10-09T05:59:33.023Z,14.66
2023-10-09T06:02:01.073Z,14.84
2023-10-09T06:04:28.873Z,15.05
2023-10-09T06:06:55.862Z,15.03
2023-10-09T06:09:23.408Z,14.98
2023-10-09T06:11:51.681Z,15.11
2023-10-09T06:14:20.977Z,15.19
2023-10-09T06:17:08.625Z,15.25
2023-10-09T06:19:35.789Z,15.32
2023-10-09T06:22:02.842Z,15.27
2023-10-09T06:24:29.887Z,15.38
2023-10-09T06:26:56.865Z,15.43
2023-10-09T06:29:24.201Z,15.55
2023-10-09T06:31:51.116Z,15.66
2023-10-09T06:34:19.909Z,15.68
2023-10-09T06:36:47.103Z,15.73
2023-10-09T06:39:14.854Z,15.60
2023-10-09T06:41:41.764Z,15.74
2023-10-09T06:44:10.572Z,15.79
2023-10-09T06:46:38.663Z,15.71
2023-10-09T06:49:05.735Z,15.67
2023-10-09T06:51:34.141Z,15.35
2023-10-09T06:54:02.343Z,15.05
2023-10-09T06:56:31.131Z,15.35
2023-10-09T06:58:59.282Z,15.31
2023-10-09T07:01:26.740Z,15.49
2023-10-09T07:03:54.528Z,15.55
2023-10-09T07:06:22.609Z,15.65
2023-10-09T07:08:53.942Z,15.59
2023-10-09T07:11:20.894Z,15.68
2023-10-09T07:13:48.169Z,15.65
2023-10-09T07:16:15.271Z,15.25
2023-10-09T07:18:43.575Z,15.45
2023-10-09T07:21:14.763Z,15.62
2023-10-09T07:23:42.059Z,15.76
2023-10-09T07:26:10.358Z,15.76
2023-10-09T07:28:37.633Z,15.88
2023-10-09T07:31:05.481Z,15.99
2023-10-09T07:33:32.888Z,15.65
2023-10-09T07:36:03.047Z,15.61
2023-10-09T07:38:30.274Z,15.74
2023-10-09T07:40:58.082Z,15.82
2023-10-09T07:43:29.297Z,15.97
2023-10-09T07:45:59.445Z,16.12
2023-10-09T07:48:27.834Z,16.01
2023-10-09T07:50:57.575Z,16.19
2023-10-09T07:53:24.977Z,16.37
2023-10-09T07:55:52.472Z,16.55
2023-10-09T07:58:22.428Z,16.37
2023-10-09T08:00:54.993Z,16.40
2023-10-09T08:03:22.321Z,16.64
2023-10-09T08:05:49.718Z,16.83
2023-10-09T08:08:27.105Z,17.00
2023-10-09T08:11:03.019Z,17.24
2023-10-09T08:13:29.844Z,17.27
2023-10-09T08:15:58.900Z,17.33
2023-10-09T08:18:26.091Z,17.10
2023-10-09T08:20:54.257Z,16.96
2023-10-09T08:23:22.543Z,16.78
2023-10-09T08:25:51.333Z,16.99
2023-10-09T08:28:18.901Z,17.03
2023-10-09T08:30:46.527Z,16.87
2023-10-09T08:35:46.361Z,17.08
2023-10-09T08:38:13.332Z,17.25
2023-10-09T08:40:42.558Z,17.38
2023-10-09T08:43:15.605Z,17.34
2023-10-09T08:45:48.032Z,17.38
2023-10-09T08:48:17.192Z,17.23
2023-10-09T08:50:46.712Z,17.27
2023-10-09T08:53:14.742Z,17.52
2023-10-09T08:55:42.831Z,17.55
2023-10-09T08:58:10.639Z,17.63
2023-10-09T09:00:42.791Z,17.87
2023-10-09T09:03:10.629Z,17.99
2023-10-09T09:05:41.570Z,18.27
2023-10-09T09:08:24.950Z,18.53
2023-10-09T09:10:58.546Z,18.79
2023-10-09T09:13:30.124Z,19.03
2023-10-09T09:15:57.536Z,19.27
2023-10-09T09:18:24.566Z,19.34
2023-10-09T09:20:53.841Z,18.99
2023-10-09T09:23:22.236Z,19.03
2023-10-09T09:25:51.005Z,18.92
2023-10-09T09:28:17.921Z,18.98
2023-10-09T09:30:45.101Z,19.20
2023-10-09T09:33:20.752Z,19.27
2023-10-09T09:35:59.890Z,19.76
2023-10-09T09:38:28.359Z,19.87
2023-10-09T09:40:58.319Z,20.12
2023-10-09T09:43:29.067Z,20.47
2023-10-09T09:45:58.809Z,20.93
2023-10-09T09:48:28.331Z,21.34
2023-10-09T09:50:55.541Z,21.76
2023-10-09T09:53:25.093Z,22.00
2023-10-09T09:55:55.087Z,22.16
2023-10-09T09:58:22.767Z,22.31
2023-10-09T10:00:54.784Z,22.32
2023-10-09T10:03:30.361Z,22.26
2023-10-09T10:05:59.287Z,22.12
2023-10-09T10:08:28.089Z,22.20
2023-10-09T10:10:55.883Z,22.04
2023-10-09T10:13:58.068Z,22.22
2023-10-09T10:16:25.149Z,22.38
2023-10-09T10:18:57.910Z,22.33
2023-10-09T10:21:27.137Z,22.37
2023-10-09T10:23:56.448Z,22.20
2023-10-09T10:26:25.358Z,21.95
2023-10-09T10:29:20.141Z,21.41
2023-10-09T10:31:57.811Z,21.35
2023-10-09T10:34:26.340Z,21.51
2023-10-09T10:36:54.651Z,21.46
2023-10-09T10:39:23.982Z,21.56
2023-10-09T10:42:02.093Z,21.65
2023-10-09T10:44:46.921Z,21.59
2023-10-09T10:47:14.706Z,21.55
2023-10-09T10:49:45.601Z,21.88
2023-10-09T10:52:22.540Z,22.25
2023-10-09T10:54:52.268Z,22.55
2023-10-09T10:57:21.587Z,22.90
2023-10-09T10:59:48.817Z,23.12
2023-10-09T11:02:19.253Z,23.09
2023-10-09T11:04:50.323Z,23.25
2023-10-09T11:07:23.477Z,23.16
2023-10-09T11:09:56.951Z,23.16
2023-10-09T11:12:26.001Z,23.16
2023-10-09T11:14:53.110Z,23.06
2023-10-09T11:17:22.121Z,22.81
2023-10-09T11:19:49.856Z,22.68
2023-10-09T11:22:24.896Z,22.64
2023-10-09T11:24:54.410Z,22.32
2023-10-09T11:27:21.759Z,22.39
2023-10-09T11:29:52.804Z,22.53
2023-10-09T11:32:21.677Z,22.70
2023-10-09T11:34:50.184Z,22.86
2023-10-09T11:37:19.790Z,22.89
2023-10-09T11:39:46.897Z,22.97
2023-10-09T11:42:16.189Z,23.05
2023-10-09T11:44:44.754Z,23.06
2023-10-09T11:47:12.661Z,23.05
2023-10-09T11:49:49.799Z,23.08
2023-10-09T11:52:16.882Z,23.13
2023-10-09T11:54:43.790Z,23.18
2023-10-09T11:57:10.687Z,23.19
2023-10-09T11:59:39.206Z,23.31
2023-10-09T12:02:06.304Z,23.47
2023-10-09T12:04:33.688Z,23.67
2023-10-09T12:07:02.957Z,23.86
2023-10-09T12:09:31.325Z,23.99
2023-10-09T12:12:04.245Z,24.11
2023-10-09T12:14:32.479Z,23.93
2023-10-09T12:17:01.603Z,23.82
2023-10-09T12:19:29.199Z,23.91
2023-10-09T12:21:57.366Z,24.19
2023-10-09T12:24:24.257Z,23.49
2023-10-09T12:26:53.036Z,23.94
2023-10-09T12:29:20.695Z,24.24
2023-10-09T12:31:49.986Z,24.15
2023-10-09T12:34:18.544Z,24.36
2023-10-09T12:36:46.492Z,23.71
2023-10-09T12:39:13.365Z,23.66
2023-10-09T12:41:41.075Z,24.14
2023-10-09T12:44:08.102Z,24.50
2023-10-09T12:46:36.280Z,24.83
2023-10-09T12:49:03.245Z,24.83
2023-10-09T12:51:31.825Z,25.02
2023-10-09T12:54:02.124Z,25.23
2023-10-09T12:56:29.761Z,25.49
2023-10-09T12:58:56.896Z,25.39
2023-10-09T13:01:23.937Z,25.63
2023-10-09T13:03:51.354Z,25.85
2023-10-09T13:06:18.882Z,26.00
2023-10-09T13:08:47.190Z,26.18
2023-10-09T13:11:14.103Z,26.20
2023-10-09T13:13:42.774Z,26.22
2023-10-09T13:16:12.527Z,26.26
2023-10-09T13:18:41.556Z,26.23
2023-10-09T13:21:08.746Z,26.26
2023-10-09T13:23:36.066Z,26.23
2023-10-09T13:26:06.339Z,26.10
2023-10-09T13:28:36.608Z,25.90
2023-10-09T13:31:03.486Z,25.84
2023-10-09T13:33:30.701Z,25.81
2023-10-09T13:35:57.693Z,25.85
2023-10-09T13:38:27.173Z,25.80
2023-10-09T13:40:58.996Z,25.79
2023-10-09T13:43:27.220Z,25.73
2023-10-09T13:45:54.435Z,25.72
2023-10-09T13:48:21.702Z,25.57
2023-10-09T13:50:52.115Z,25.55
2023-10-09T13:53:21.054Z,25.52
2023-10-09T13:55:48.128Z,25.48
2023-10-09T13:58:15.611Z,25.54
2023-10-09T14:00:44.600Z,25.30
2023-10-09T14:03:12.101Z,25.35
2023-10-09T14:05:40.556Z,25.24
2023-10-09T14:08:08.077Z,25.34
2023-10-09T14:10:38.411Z,24.97
2023-10-09T14:13:06.874Z,24.86
2023-10-09T14:15:34.724Z,24.98
2023-10-09T14:18:05.011Z,24.92
2023-10-09T14:20:32.581Z,24.86
2023-10-09T14:23:00.984Z,25.00
2023-10-09T14:25:32.654Z,24.83
2023-10-09T14:27:59.770Z,24.57
2023-10-09T14:30:27.389Z,24.44
2023-10-09T14:32:58.265Z,24.31
2023-10-09T14:35:27.912Z,24.43
2023-10-09T14:37:56.267Z,24.53
2023-10-09T14:40:24.623Z,24.37
2023-10-09T14:42:53.401Z,24.54
2023-10-09T14:45:27.698Z,24.72
2023-10-09T14:47:55.187Z,24.75
2023-10-09T14:50:22.545Z,24.52
2023-10-09T14:52:52.422Z,24.60
2023-10-09T14:55:20.616Z,24.66
2023-10-09T14:57:49.183Z,24.68
2023-10-09T15:00:17.951Z,24.76
2023-10-09T15:02:45.470Z,24.82
2023-10-09T15:05:13.445Z,24.82
2023-10-09T15:07:41.761Z,24.87
2023-10-09T15:10:12.818Z,24.80
2023-10-09T15:12:40.213Z,24.83
2023-10-09T15:15:09.664Z,24.59
2023-10-09T15:17:36.832Z,24.77
2023-10-09T15:20:05.653Z,24.80
2023-10-09T15:22:33.553Z,24.74
2023-10-09T15:25:01.747Z,24.58
2023-10-09T15:27:30.140Z,24.42
2023-10-09T15:29:57.712Z,24.38
2023-10-09T15:32:25.041Z,24.40
2023-10-09T15:34:56.874Z,24.34
2023-10-09T15:37:27.595Z,24.25
2023-10-09T15:39:55.285Z,24.12
2023-10-09T15:42:23.622Z,24.07
2023-10-09T15:44:53.848Z,24.10
2023-10-09T15:47:20.798Z,24.06
2023-10-09T15:49:47.761Z,24.06
2023-10-09T15:52:14.948Z,24.03
2023-10-09T15:54:41.891Z,24.01
2023-10-09T15:57:14.035Z,23.97
2023-10-09T15:59:41.532Z,23.91
2023-10-09T16:02:10.539Z,23.84
2023-10-09T16:04:37.531Z,23.81
2023-10-09T16:07:08.294Z,23.67
2023-10-09T16:09:35.229Z,23.31
2023-10-09T16:12:03.460Z,22.91
2023-10-09T16:14:30.783Z,23.03
2023-10-09T16:16:57.743Z,22.83
2023-10-09T16:19:26.173Z,22.53
2023-10-09T16:21:53.224Z,22.24
2023-10-09T16:24:22.615Z,21.94
2023-10-09T16:26:49.993Z,21.77
2023-10-09T16:29:17.321Z,21.82
2023-10-09T16:31:44.717Z,21.69
2023-10-09T16:34:11.871Z,21.71
2023-10-09T16:36:40.156Z,21.58
2023-10-09T16:39:07.192Z,21.46
2023-10-09T16:41:34.114Z,21.42
2023-10-09T16:44:01.900Z,21.36
2023-10-09T16:46:29.061Z,21.33
2023-10-09T16:48:55.941Z,21.17
2023-10-09T16:51:23.076Z,21.14
2023-10-09T16:53:52.430Z,21.01
2023-10-09T16:56:20.281Z,20.93
2023-10-09T16:58:47.746Z,20.77
2023-10-09T17:01:17.367Z,20.70
2023-10-09T17:03:45.273Z,20.67
2023-10-09T17:06:13.890Z,20.73
2023-10-09T17:08:41.633Z,20.64
2023-10-09T17:11:10.389Z,20.59
2023-10-09T17:13:37.305Z,20.59
2023-10-09T17:16:04.365Z,20.59
2023-10-09T17:18:31.369Z,20.50
2023-10-09T17:20:58.300Z,20.43
2023-10-09T17:23:25.374Z,20.49
2023-10-09T17:25:52.685Z,20.39
2023-10-09T17:28:21.005Z,20.17
2023-10-09T17:30:48.889Z,19.99
2023-10-09T17:33:16.985Z,19.98
2023-10-09T17:35:44.425Z,19.95
2023-10-09T17:38:11.709Z,19.89
2023-10-09T17:40:45.987Z,19.87
2023-10-09T17:43:12.953Z,19.75
2023-10-09T17:45:41.825Z,19.71
2023-10-09T17:48:10.619Z,19.66
2023-10-09T17:50:43.875Z,19.51
2023-10-09T17:53:14.830Z,19.33
2023-10-09T17:55:44.567Z,19.31
2023-10-09T17:58:13.566Z,19.35
2023-10-09T18:00:44.246Z,19.35
2023-10-09T18:03:16.221Z,19.31
2023-10-09T18:05:45.018Z,19.14
2023-10-09T18:08:14.261Z,19.13
2023-10-09T18:10:44.361Z,19.00
2023-10-09T18:13:13.534Z,18.94
2023-10-09T18:15:42.540Z,18.82
2023-10-09T18:18:15.682Z,18.65
2023-10-09T18:21:14.781Z,18.52
2023-10-09T18:23:43.682Z,18.57
2023-10-09T18:26:11.419Z,18.57
2023-10-09T18:28:38.750Z,18.58
2023-10-09T18:31:13.296Z,18.65
2023-10-09T18:33:46.167Z,18.73
2023-10-09T18:36:13.171Z,18.61
2023-10-09T18:38:40.832Z,18.74
2023-10-09T18:41:11.459Z,18.78
2023-10-09T18:43:38.597Z,18.80
2023-10-09T18:46:05.630Z,18.72
2023-10-09T18:48:34.580Z,18.74
2023-10-09T18:51:01.924Z,18.70
2023-10-09T18:53:29.129Z,18.71
2023-10-09T18:55:59.445Z,18.71
2023-10-09T18:58:26.474Z,18.86
2023-10-09T19:00:55.111Z,18.90
2023-10-09T19:03:22.822Z,18.91
2023-10-09T19:05:51.540Z,18.91
2023-10-09T19:08:18.610Z,18.92
2023-10-09T19:10:45.902Z,18.94
2023-10-09T19:13:13.766Z,18.83
2023-10-09T19:15:41.586Z,18.75
2023-10-09T19:18:09.072Z,18.75
2023-10-09T19:20:38.900Z,18.76
2023-10-09T19:23:08.015Z,18.72
2023-10-09T19:25:35.163Z,18.76
2023-10-09T19:28:02.484Z,18.68
2023-10-09T19:30:29.776Z,18.72
2023-10-09T19:32:56.806Z,18.71
2023-10-09T19:35:26.687Z,18.62
2023-10-09T19:37:53.817Z,18.69
2023-10-09T19:40:29.263Z,18.67
2023-10-09T19:42:57.543Z,18.75
2023-10-09T19:45:26.725Z,18.60
2023-10-09T19:47:53.825Z,18.54
2023-10-09T19:50:24.664Z,18.49
2023-10-09T19:52:51.883Z,18.43
2023-10-09T19:55:19.149Z,18.50
2023-10-09T19:57:47.769Z,18.45
2023-10-09T20:00:15.903Z,18.40
2023-10-09T20:02:43.099Z,18.47
2023-10-09T20:05:12.133Z,18.50
2023-10-09T20:07:39.377Z,18.56
2023-10-09T20:10:08.154Z,18.67
2023-10-09T20:12:38.093Z,18.72
2023-10-09T20:15:08.541Z,18.78
2023-10-09T20:17:36.021Z,18.78
2023-10-09T20:20:03.331Z,18.73
2023-10-09T20:22:32.107Z,18.60
2023-10-09T20:24:59.056Z,18.59
2023-10-09T20:27:26.732Z,18.46
2023-10-09T20:29:55.009Z,18.44
2023-10-09T20:32:23.833Z,18.40
2023-10-09T20:34:51.012Z,18.45
2023-10-09T20:37:18.087Z,18.47
2023-10-09T20:39:52.732Z,18.50
2023-10-09T20:42:19.724Z,18.53
2023-10-09T20:44:51.177Z,18.53
2023-10-09T20:47:44.484Z,18.54
2023-10-09T20:50:12.142Z,18.50
2023-10-09T20:52:39.086Z,18.53
2023-10-09T20:55:07.100Z,18.58
2023-10-09T20:57:34.015Z,18.59
2023-10-09T21:00:00.925Z,18.57
2023-10-09T21:02:28.310Z,18.56
2023-10-09T21:04:58.090Z,18.59
2023-10-09T21:07:25.607Z,18.44
2023-10-09T21:09:52.595Z,18.40
2023-10-09T21:12:19.856Z,18.25
2023-10-09T21:14:47.146Z,17.98
2023-10-09T21:17:14.496Z,17.98
2023-10-09T21:19:42.552Z,17.90
2023-10-09T21:22:10.849Z,17.67
2023-10-09T21:24:37.996Z,17.70
2023-10-09T21:27:05.201Z,17.53
2023-10-09T21:29:32.323Z,17.56
2023-10-09T21:32:00.120Z,17.46
2023-10-09T21:34:27.718Z,17.46
2023-10-09T21:36:56.381Z,17.43
2023-10-09T21:39:27.969Z,17.35
2023-10-09T21:41:57.352Z,17.22
2023-10-09T21:44:25.992Z,17.25
2023-10-09T21:46:55.391Z,17.22
2023-10-09T21:49:22.625Z,17.13
2023-10-09T21:51:50.102Z,17.08
2023-10-09T21:54:18.665Z,17.17
2023-10-09T21:56:47.229Z,17.16
2023-10-09T21:59:15.256Z,17.20
2023-10-09T22:01:43.552Z,17.20
2023-10-09T22:04:10.774Z,17.25
2023-10-09T22:06:37.964Z,17.28
2023-10-09T22:09:05.937Z,17.30
2023-10-09T22:11:33.057Z,17.18
2023-10-09T22:14:03.351Z,17.18
2023-10-09T22:16:31.128Z,17.21
2023-10-09T22:19:13.070Z,17.19
2023-10-09T22:21:43.729Z,17.20
2023-10-09T22:24:19.385Z,17.18
2023-10-09T22:26:50.429Z,17.07
2023-10-09T22:29:19.326Z,17.05
2023-10-09T22:31:48.051Z,16.96
2023-10-09T22:34:17.301Z,16.82
2023-10-09T22:36:53.076Z,16.74
2023-10-09T22:39:25.174Z,16.74
2023-10-09T22:41:59.923Z,16.69
2023-10-09T22:44:30.618Z,16.65
2023-10-09T22:46:57.923Z,16.67
2023-10-09T22:49:25.205Z,16.65
2023-10-09T22:51:52.798Z,16.66
2023-10-09T22:54:20.979Z,16.64
2023-10-09T22:56:47.856Z,16.63
2023-10-09T22:59:14.941Z,16.60
2023-10-09T23:01:43.579Z,16.63
2023-10-09T23:04:10.630Z,16.62
2023-10-09T23:06:38.641Z,16.63
2023-10-09T23:09:05.705Z,16.61
2023-10-09T23:11:32.935Z,16.57
2023-10-09T23:14:00.092Z,16.58
2023-10-09T23:16:27.094Z,16.55
2023-10-09T23:18:55.417Z,16.30
2023-10-09T23:21:22.402Z,16.25
2023-10-09T23:23:50.473Z,16.09
2023-10-09T23:26:18.661Z,15.97
2023-10-09T23:28:45.605Z,15.96
2023-10-09T23:31:15.397Z,15.90
2023-10-09T23:33:42.400Z,15.88
2023-10-09T23:36:10.695Z,15.71
2023-10-09T23:38:37.600Z,15.79
2023-10-09T23:41:04.739Z,15.78
2023-10-09T23:43:31.761Z,15.77
2023-10-09T23:45:59.244Z,15.79
2023-10-09T23:48:27.440Z,15.79
2023-10-09T23:50:55.740Z,15.73
2023-10-09T23:53:24.463Z,15.66
2023-10-09T23:55:53.014Z,15.60
2023-10-09T23:58:21.064Z,15.34
